createdAt,value
2023-02-15T00:02:00.588Z,84.00
2023-02-15T00:04:27.307Z,84.31
2023-02-15T00:06:55.066Z,83.78
2023-02-15T00:09:21.516Z,84.58
2023-02-15T00:11:47.929Z,85.14
2023-02-15T00:14:18.446Z,84.30
2023-02-15T00:16:45.116Z,85.01
2023-02-15T00:19:13.071Z,84.65
2023-02-15T00:21:40.599Z,86.10
2023-02-15T00:24:11.196Z,87.34
2023-02-15T00:26:39.582Z,89.04
2023-02-15T00:29:06.644Z,90.86
2023-02-15T00:31:33.984Z,89.24
2023-02-15T00:34:03.046Z,92.26
2023-02-15T00:36:29.456Z,91.36
2023-02-15T00:38:55.872Z,88.35
2023-02-15T00:41:23.553Z,88.04
2023-02-15T00:43:50.068Z,88.22
2023-02-15T00:46:16.484Z,86.71
2023-02-15T00:48:42.858Z,84.67
2023-02-15T00:51:09.357Z,84.97
2023-02-15T00:53:35.799Z,85.72
2023-02-15T00:56:02.470Z,85.21
2023-02-15T00:58:30.530Z,85.54
2023-02-15T01:01:04.333Z,85.23
2023-02-15T01:03:30.598Z,85.74
2023-02-15T01:05:56.955Z,84.79
2023-02-15T01:08:23.324Z,84.68
2023-02-15T01:10:49.706Z,84.73
2023-02-15T01:13:16.529Z,83.89
2023-02-15T01:15:44.860Z,82.67
2023-02-15T01:18:12.364Z,83.42
2023-02-15T01:20:40.543Z,83.65
2023-02-15T01:23:07.663Z,83.84
2023-02-15T01:25:36.203Z,84.30
2023-02-15T01:28:03.413Z,82.87
2023-02-15T01:30:30.139Z,82.25
2023-02-15T01:32:57.859Z,84.35
2023-02-15T01:35:24.474Z,84.85
2023-02-15T01:37:50.886Z,82.55
2023-02-15T01:40:19.449Z,81.46
2023-02-15T01:42:46.281Z,82.42
2023-02-15T01:45:20.584Z,83.12
2023-02-15T01:47:50.717Z,82.85
2023-02-15T01:50:23.729Z,82.58
2023-02-15T01:52:56.140Z,83.23
2023-02-15T01:55:25.949Z,83.38
2023-02-15T01:57:52.533Z,84.13
2023-02-15T02:00:20.342Z,84.52
2023-02-15T02:02:50.182Z,84.54
2023-02-15T02:05:17.933Z,84.39
2023-02-15T02:07:46.405Z,84.12
2023-02-15T02:10:15.357Z,83.35
2023-02-15T02:12:44.499Z,83.57
2023-02-15T02:15:11.363Z,83.39
2023-02-15T02:17:49.089Z,83.61
2023-02-15T02:20:30.894Z,83.96
2023-02-15T02:23:14.560Z,83.18
2023-02-15T02:26:11.344Z,83.86
2023-02-15T02:29:17.530Z,83.36
2023-02-15T02:32:17.190Z,83.29
2023-02-15T02:34:52.103Z,84.31
2023-02-15T02:37:24.654Z,83.93
2023-02-15T02:40:00.030Z,83.03
2023-02-15T02:42:34.194Z,84.18
2023-02-15T02:45:05.591Z,83.54
2023-02-15T02:47:37.253Z,82.81
2023-02-15T02:50:08.370Z,84.02
2023-02-15T02:52:41.083Z,83.34
2023-02-15T02:55:12.344Z,82.26
2023-02-15T02:57:46.198Z,84.30
2023-02-15T03:00:13.076Z,83.49
2023-02-15T03:02:44.972Z,83.13
2023-02-15T03:05:17.114Z,84.61
2023-02-15T03:07:48.916Z,83.07
2023-02-15T03:10:16.297Z,84.98
2023-02-15T03:12:43.246Z,84.20
2023-02-15T03:15:14.473Z,84.17
2023-02-15T03:17:45.721Z,84.32
2023-02-15T03:20:16.674Z,84.03
2023-02-15T03:22:46.992Z,82.73
2023-02-15T03:25:18.165Z,83.49
2023-02-15T03:27:47.600Z,82.64
2023-02-15T03:30:16.570Z,83.90
2023-02-15T03:32:44.328Z,83.86
2023-02-15T03:35:10.949Z,86.44
2023-02-15T03:37:43.871Z,84.44
2023-02-15T03:40:16.789Z,82.97
2023-02-15T03:42:45.810Z,83.22
2023-02-15T03:45:17.782Z,85.14
2023-02-15T03:47:47.519Z,84.68
2023-02-15T03:50:19.733Z,83.16
2023-02-15T03:52:47.466Z,83.46
2023-02-15T03:55:13.992Z,83.33
2023-02-15T03:57:40.656Z,83.73
2023-02-15T04:00:13.798Z,84.28
2023-02-15T04:02:53.170Z,82.52
2023-02-15T04:05:19.579Z,83.92
2023-02-15T04:07:47.253Z,83.89
2023-02-15T04:10:13.696Z,83.27
2023-02-15T04:12:40.040Z,83.25
2023-02-15T04:15:07.332Z,82.90
2023-02-15T04:17:33.767Z,82.34
2023-02-15T04:20:00.328Z,82.57
2023-02-15T04:22:26.742Z,83.20
2023-02-15T04:24:54.465Z,82.11
2023-02-15T04:27:20.818Z,82.59
2023-02-15T04:29:47.165Z,82.21
2023-02-15T04:32:13.611Z,84.06
2023-02-15T04:34:40.006Z,83.56
2023-02-15T04:37:06.373Z,83.71
2023-02-15T04:39:32.746Z,83.62
2023-02-15T04:42:00.448Z,83.11
2023-02-15T04:44:26.823Z,83.98
2023-02-15T04:46:53.239Z,83.24
2023-02-15T04:49:19.575Z,83.45
2023-02-15T04:51:45.919Z,83.47
2023-02-15T04:54:12.337Z,83.92
2023-02-15T04:56:38.729Z,82.93
2023-02-15T04:59:06.666Z,83.02
2023-02-15T05:01:33.055Z,83.84
2023-02-15T05:03:59.420Z,83.08
2023-02-15T05:06:25.773Z,83.24
2023-02-15T05:08:52.185Z,82.76
2023-02-15T05:11:18.873Z,82.59
2023-02-15T05:13:45.215Z,83.60
2023-02-15T05:16:12.989Z,82.78
2023-02-15T05:18:39.411Z,81.95
2023-02-15T05:21:05.764Z,83.20
2023-02-15T05:23:32.138Z,82.14
2023-02-15T05:25:58.498Z,82.34
2023-02-15T05:28:28.178Z,83.16
2023-02-15T05:31:04.461Z,83.07
2023-02-15T05:33:32.794Z,82.81
2023-02-15T05:35:59.390Z,83.60
2023-02-15T05:38:25.988Z,84.48
2023-02-15T05:40:53.012Z,84.11
2023-02-15T05:43:20.267Z,83.92
2023-02-15T05:45:46.913Z,83.54
2023-02-15T05:48:13.267Z,84.60
2023-02-15T05:50:41.154Z,85.15
2023-02-15T05:53:07.663Z,83.67
2023-02-15T05:55:34.035Z,83.54
2023-02-15T05:58:00.401Z,82.26
2023-02-15T06:00:26.786Z,83.71
2023-02-15T06:02:53.136Z,83.97
2023-02-15T06:05:19.469Z,86.03
2023-02-15T06:07:47.182Z,83.36
2023-02-15T06:10:13.574Z,84.73
2023-02-15T06:12:39.971Z,83.58
2023-02-15T06:15:07.378Z,83.43
2023-02-15T06:17:33.939Z,85.47
2023-02-15T06:20:00.289Z,88.06
2023-02-15T06:22:26.648Z,88.76
2023-02-15T06:24:54.325Z,87.84
2023-02-15T06:27:20.831Z,87.81
2023-02-15T06:29:47.238Z,87.08
2023-02-15T06:32:13.615Z,90.45
2023-02-15T06:34:40.004Z,90.53
2023-02-15T06:37:06.381Z,89.18
2023-02-15T06:39:32.757Z,87.65
2023-02-15T06:42:00.600Z,87.38
2023-02-15T06:44:27.098Z,86.66
2023-02-15T06:46:53.456Z,88.38
2023-02-15T06:49:19.819Z,89.78
2023-02-15T06:51:46.247Z,87.94
2023-02-15T06:54:12.637Z,90.30
2023-02-15T06:56:39.005Z,89.59
2023-02-15T06:59:06.746Z,88.89
2023-02-15T07:01:33.126Z,89.68
2023-02-15T07:03:59.516Z,90.33
2023-02-15T07:06:26.095Z,89.43
2023-02-15T07:08:52.500Z,88.47
2023-02-15T07:11:18.875Z,91.19
2023-02-15T07:13:45.439Z,91.06
2023-02-15T07:16:13.721Z,88.99
2023-02-15T07:18:40.618Z,89.66
2023-02-15T07:21:07.572Z,88.61
2023-02-15T07:23:34.232Z,89.42
2023-02-15T07:26:01.648Z,88.24
2023-02-15T07:28:28.277Z,89.70
2023-02-15T07:30:54.838Z,90.21
2023-02-15T07:33:22.540Z,89.75
2023-02-15T07:35:49.604Z,87.51
2023-02-15T07:38:16.407Z,86.91
2023-02-15T07:40:42.884Z,86.02
2023-02-15T07:43:09.441Z,87.26
2023-02-15T07:45:35.805Z,87.66
2023-02-15T07:48:02.184Z,87.62
2023-02-15T07:50:30.313Z,86.75
2023-02-15T07:52:56.778Z,84.40
2023-02-15T07:55:23.250Z,84.87
2023-02-15T07:57:50.990Z,86.63
2023-02-15T08:00:19.003Z,87.79
2023-02-15T08:02:48.553Z,88.34
2023-02-15T08:05:15.205Z,88.02
2023-02-15T08:07:42.903Z,87.70
2023-02-15T08:10:09.946Z,85.07
2023-02-15T08:12:36.346Z,84.99
2023-02-15T08:15:02.821Z,83.61
2023-02-15T08:17:29.229Z,86.36
2023-02-15T08:19:55.601Z,85.91
2023-02-15T08:22:21.948Z,85.99
2023-02-15T08:24:49.623Z,82.37
2023-02-15T08:27:16.004Z,83.21
2023-02-15T08:29:42.367Z,84.88
2023-02-15T08:32:10.960Z,83.98
2023-02-15T08:34:39.897Z,82.58
2023-02-15T08:37:06.286Z,84.28
2023-02-15T08:39:32.782Z,83.91
2023-02-15T08:42:00.612Z,82.65
2023-02-15T08:44:27.084Z,83.96
2023-02-15T08:46:53.460Z,81.94
2023-02-15T08:49:21.189Z,78.74
2023-02-15T08:51:49.050Z,77.60
2023-02-15T08:54:17.736Z,77.87
2023-02-15T08:56:45.363Z,77.59
2023-02-15T08:59:16.121Z,83.15
2023-02-15T09:01:43.157Z,82.08
2023-02-15T09:04:10.465Z,80.55
2023-02-15T09:06:37.971Z,83.17
2023-02-15T09:09:04.949Z,78.17
2023-02-15T09:11:34.612Z,79.50
2023-02-15T09:14:03.166Z,80.40
2023-02-15T09:16:33.180Z,78.00
2023-02-15T09:19:00.357Z,76.50
2023-02-15T09:21:27.390Z,76.76
2023-02-15T09:23:58.385Z,75.64
2023-02-15T09:26:25.471Z,75.06
2023-02-15T09:28:53.474Z,75.44
2023-02-15T09:31:21.890Z,75.05
2023-02-15T09:33:50.254Z,73.88
2023-02-15T09:36:18.586Z,79.43
2023-02-15T09:38:45.104Z,75.31
2023-02-15T09:41:36.644Z,72.99
2023-02-15T09:44:14.535Z,72.94
2023-02-15T09:46:56.713Z,73.27
2023-02-15T09:49:30.888Z,71.88
2023-02-15T09:52:21.415Z,73.26
2023-02-15T09:55:05.866Z,72.22
2023-02-15T09:57:41.992Z,72.94
2023-02-15T10:00:18.148Z,74.09
2023-02-15T10:03:13.149Z,76.90
2023-02-15T10:05:54.966Z,76.04
2023-02-15T10:08:49.631Z,72.88
2023-02-15T10:11:23.271Z,71.04
2023-02-15T10:13:58.005Z,70.83
2023-02-15T10:16:32.979Z,73.83
2023-02-15T10:19:09.940Z,72.26
2023-02-15T10:21:54.639Z,76.19
2023-02-15T10:24:50.404Z,77.21
2023-02-15T10:27:21.142Z,76.53
2023-02-15T10:29:59.858Z,74.35
2023-02-15T10:32:27.804Z,72.94
2023-02-15T10:35:01.330Z,73.08
2023-02-15T10:37:48.071Z,75.07
2023-02-15T10:40:23.046Z,73.11
2023-02-15T10:43:03.752Z,74.55
2023-02-15T10:45:40.101Z,73.23
2023-02-15T10:48:37.600Z,73.41
2023-02-15T10:51:09.033Z,71.07
2023-02-15T10:53:52.769Z,70.43
2023-02-15T10:56:25.709Z,72.18
2023-02-15T10:59:04.705Z,70.38
2023-02-15T11:01:36.944Z,69.02
2023-02-15T11:04:31.977Z,71.12
2023-02-15T11:07:03.535Z,72.55
2023-02-15T11:09:45.260Z,69.38
2023-02-15T11:12:17.644Z,71.82
2023-02-15T11:14:50.853Z,72.33
2023-02-15T11:17:20.670Z,71.88
2023-02-15T11:19:55.518Z,68.80
2023-02-15T11:22:22.638Z,66.01
2023-02-15T11:24:50.527Z,65.91
2023-02-15T11:27:20.837Z,65.01
2023-02-15T11:29:55.713Z,66.96
2023-02-15T11:32:25.959Z,66.69
2023-02-15T11:34:55.836Z,64.52
2023-02-15T11:37:28.283Z,65.10
2023-02-15T11:39:55.966Z,65.83
2023-02-15T11:42:26.122Z,64.89
2023-02-15T11:44:59.364Z,66.34
2023-02-15T11:47:25.771Z,65.74
2023-02-15T11:49:52.150Z,66.57
2023-02-15T11:52:19.170Z,63.66
2023-02-15T11:54:48.733Z,67.00
2023-02-15T11:57:23.125Z,65.79
2023-02-15T11:59:56.855Z,67.91
2023-02-15T12:02:24.075Z,66.13
2023-02-15T12:04:53.535Z,65.31
2023-02-15T12:07:24.134Z,67.51
2023-02-15T12:09:57.371Z,65.83
2023-02-15T12:12:27.165Z,65.61
2023-02-15T12:14:55.305Z,65.16
2023-02-15T12:17:24.341Z,65.27
2023-02-15T12:19:52.983Z,66.62
2023-02-15T12:22:23.990Z,63.99
2023-02-15T12:24:53.486Z,62.54
2023-02-15T12:27:22.973Z,64.15
2023-02-15T12:29:53.434Z,64.19
2023-02-15T12:32:24.407Z,63.42
2023-02-15T12:34:52.460Z,61.53
2023-02-15T12:37:23.714Z,62.86
2023-02-15T12:39:55.110Z,62.53
2023-02-15T12:42:21.773Z,61.48
2023-02-15T12:45:01.444Z,60.77
2023-02-15T12:47:29.432Z,61.99
2023-02-15T12:50:12.313Z,62.31
2023-02-15T12:52:38.875Z,61.94
2023-02-15T12:55:20.411Z,61.53
2023-02-15T12:57:46.798Z,62.48
2023-02-15T13:00:28.395Z,63.87
2023-02-15T13:02:58.105Z,63.92
2023-02-15T13:05:30.497Z,64.39
2023-02-15T13:07:59.097Z,64.44
2023-02-15T13:10:29.064Z,65.06
2023-02-15T13:12:56.605Z,63.86
2023-02-15T13:15:36.712Z,65.43
2023-02-15T13:18:05.017Z,62.46
2023-02-15T13:20:35.166Z,61.37
2023-02-15T13:23:06.745Z,59.19
2023-02-15T13:25:40.892Z,61.34
2023-02-15T13:28:12.848Z,60.79
2023-02-15T13:30:45.301Z,61.46
2023-02-15T13:33:18.644Z,62.04
2023-02-15T13:35:51.370Z,62.38
2023-02-15T13:38:41.296Z,61.61
2023-02-15T13:41:13.660Z,61.52
2023-02-15T13:43:51.251Z,61.37
2023-02-15T13:46:33.216Z,62.95
2023-02-15T13:49:10.367Z,63.58
2023-02-15T13:51:43.975Z,62.05
2023-02-15T13:54:28.110Z,61.29
2023-02-15T13:57:06.358Z,61.51
2023-02-15T13:59:47.097Z,63.32
2023-02-15T14:02:35.443Z,60.30
2023-02-15T14:05:23.706Z,61.84
2023-02-15T14:08:01.258Z,60.14
2023-02-15T14:10:55.642Z,62.95
2023-02-15T14:13:36.309Z,62.06
2023-02-15T14:16:07.576Z,64.78
2023-02-15T14:18:42.670Z,64.89
2023-02-15T14:21:14.990Z,64.84
2023-02-15T14:24:16.499Z,65.20
2023-02-15T14:26:50.902Z,65.71
2023-02-15T14:29:25.727Z,65.20
2023-02-15T14:31:57.085Z,64.99
2023-02-15T14:34:31.234Z,64.22
2023-02-15T14:36:58.557Z,63.66
2023-02-15T14:39:37.593Z,65.07
2023-02-15T14:42:12.932Z,62.26
2023-02-15T14:44:44.379Z,62.87
2023-02-15T14:47:17.264Z,62.97
2023-02-15T14:49:44.986Z,63.86
2023-02-15T14:52:12.370Z,63.27
2023-02-15T14:55:01.243Z,63.46
2023-02-15T14:57:32.462Z,62.70
2023-02-15T15:00:02.562Z,64.11
2023-02-15T15:02:41.504Z,66.34
2023-02-15T15:05:17.319Z,62.36
2023-02-15T15:07:46.560Z,63.01
2023-02-15T15:10:39.829Z,65.54
2023-02-15T15:13:39.967Z,63.57
2023-02-15T15:16:46.972Z,65.78
2023-02-15T15:19:49.868Z,63.10
2023-02-15T15:22:20.679Z,65.02
2023-02-15T15:24:52.304Z,65.15
2023-02-15T15:27:50.803Z,65.03
2023-02-15T15:31:00.196Z,66.45
2023-02-15T15:33:47.297Z,65.77
2023-02-15T15:36:59.000Z,66.66
2023-02-15T15:39:50.667Z,64.87
2023-02-15T15:42:31.778Z,63.71
2023-02-15T15:45:25.111Z,64.72
2023-02-15T15:48:09.938Z,65.90
2023-02-15T15:50:40.245Z,66.52
2023-02-15T15:53:11.315Z,66.82
2023-02-15T15:55:40.469Z,66.90
2023-02-15T15:58:08.947Z,67.23
2023-02-15T16:00:40.603Z,68.57
2023-02-15T16:03:15.342Z,66.47
2023-02-15T16:05:41.718Z,66.97
2023-02-15T16:08:08.185Z,66.32
2023-02-15T16:10:36.252Z,67.97
2023-02-15T16:13:05.567Z,66.07
2023-02-15T16:15:36.256Z,67.50
2023-02-15T16:18:03.045Z,67.52
2023-02-15T16:20:32.536Z,68.41
2023-02-15T16:23:13.672Z,67.73
2023-02-15T16:25:49.208Z,69.81
2023-02-15T16:28:17.282Z,69.91
2023-02-15T16:30:43.755Z,67.81
2023-02-15T16:33:12.634Z,68.80
2023-02-15T16:35:41.543Z,68.20
2023-02-15T16:38:10.879Z,68.97
2023-02-15T16:40:49.402Z,68.05
2023-02-15T16:43:23.457Z,67.40
2023-02-15T16:45:50.351Z,68.92
2023-02-15T16:48:21.836Z,67.54
2023-02-15T16:50:51.618Z,69.18
2023-02-15T16:53:21.137Z,67.65
2023-02-15T16:55:51.649Z,67.43
2023-02-15T16:58:26.243Z,68.98
2023-02-15T17:00:57.223Z,69.19
2023-02-15T17:03:25.252Z,68.94
2023-02-15T17:05:54.116Z,70.25
2023-02-15T17:08:26.352Z,69.89
2023-02-15T17:11:06.447Z,70.11
2023-02-15T17:13:34.315Z,69.55
2023-02-15T17:16:27.159Z,69.15
2023-02-15T17:18:53.734Z,69.29
2023-02-15T17:21:24.749Z,69.45
2023-02-15T17:23:52.549Z,71.00
2023-02-15T17:26:22.043Z,71.35
2023-02-15T17:28:52.343Z,70.70
2023-02-15T17:31:20.747Z,71.10
2023-02-15T17:33:48.632Z,70.87
2023-02-15T17:36:17.708Z,69.61
2023-02-15T17:39:02.551Z,71.79
2023-02-15T17:41:30.772Z,71.95
2023-02-15T17:43:58.642Z,71.67
2023-02-15T17:46:26.974Z,71.51
2023-02-15T17:48:55.156Z,71.29
2023-02-15T17:51:22.070Z,71.23
2023-02-15T17:53:48.760Z,71.92
2023-02-15T17:56:15.103Z,72.81
2023-02-15T17:58:41.450Z,73.73
2023-02-15T18:01:17.596Z,73.48
2023-02-15T18:03:47.576Z,72.91
2023-02-15T18:06:14.371Z,74.26
2023-02-15T18:08:40.761Z,71.86
2023-02-15T18:11:10.030Z,71.78
2023-02-15T18:13:36.390Z,72.36
2023-02-15T18:16:02.944Z,73.17
2023-02-15T18:18:30.629Z,74.76
2023-02-15T18:20:57.028Z,73.97
2023-02-15T18:23:23.417Z,73.46
2023-02-15T18:25:49.766Z,73.91
2023-02-15T18:28:16.121Z,73.81
2023-02-15T18:30:42.672Z,74.73
2023-02-15T18:33:32.960Z,74.95
2023-02-15T18:36:02.512Z,75.54
2023-02-15T18:38:28.990Z,73.54
2023-02-15T18:40:55.414Z,73.95
2023-02-15T18:43:21.862Z,75.73
2023-02-15T18:45:48.278Z,75.91
2023-02-15T18:48:14.691Z,76.01
2023-02-15T18:50:41.599Z,77.44
2023-02-15T18:53:16.945Z,76.14
2023-02-15T18:55:43.389Z,75.69
2023-02-15T18:58:15.303Z,75.56
2023-02-15T19:00:41.683Z,76.58
2023-02-15T19:03:12.008Z,77.85
2023-02-15T19:05:38.422Z,76.40
2023-02-15T19:08:04.984Z,77.67
2023-02-15T19:10:33.447Z,77.62
2023-02-15T19:12:59.921Z,78.65
2023-02-15T19:15:28.140Z,78.15
2023-02-15T19:17:55.037Z,78.92
2023-02-15T19:20:23.295Z,78.35
2023-02-15T19:22:52.093Z,77.74
2023-02-15T19:25:22.107Z,77.64
2023-02-15T19:27:50.468Z,78.98
2023-02-15T19:30:19.002Z,78.49
2023-02-15T19:32:46.264Z,77.49
2023-02-15T19:35:14.717Z,76.81
2023-02-15T19:37:43.746Z,77.81
2023-02-15T19:40:19.202Z,77.69
2023-02-15T19:42:45.633Z,77.18
2023-02-15T19:45:15.345Z,77.73
2023-02-15T19:47:41.763Z,78.64
2023-02-15T19:50:13.077Z,78.66
2023-02-15T19:52:39.964Z,78.40
2023-02-15T19:55:06.717Z,76.26
2023-02-15T19:57:33.081Z,78.99
2023-02-15T20:00:03.177Z,76.84
2023-02-15T20:02:37.162Z,77.79
2023-02-15T20:05:03.692Z,78.93
2023-02-15T20:07:30.160Z,78.56
2023-02-15T20:09:56.530Z,79.01
2023-02-15T20:12:25.226Z,78.37
2023-02-15T20:14:51.967Z,77.34
2023-02-15T20:17:18.898Z,75.89
2023-02-15T20:19:46.596Z,76.69
2023-02-15T20:22:21.836Z,73.73
2023-02-15T20:24:48.337Z,74.44
2023-02-15T20:27:15.563Z,77.07
2023-02-15T20:29:41.942Z,77.16
2023-02-15T20:32:09.836Z,76.28
2023-02-15T20:34:36.242Z,75.18
2023-02-15T20:37:05.196Z,74.46
2023-02-15T20:39:31.859Z,77.11
2023-02-15T20:41:58.426Z,76.62
2023-02-15T20:44:27.188Z,75.96
2023-02-15T20:46:55.516Z,76.51
2023-02-15T20:49:22.337Z,77.58
2023-02-15T20:51:48.734Z,77.22
2023-02-15T20:54:19.528Z,76.58
2023-02-15T20:56:46.810Z,73.88
2023-02-15T20:59:24.850Z,74.44
2023-02-15T21:01:55.300Z,77.11
2023-02-15T21:04:25.034Z,75.16
2023-02-15T21:06:51.398Z,74.51
2023-02-15T21:09:19.061Z,74.65
2023-02-15T21:11:45.624Z,75.43
2023-02-15T21:14:19.995Z,74.63
2023-02-15T21:16:47.646Z,76.18
2023-02-15T21:19:15.185Z,73.40
2023-02-15T21:21:42.041Z,76.03
2023-02-15T21:24:14.394Z,75.83
2023-02-15T21:26:44.995Z,73.98
2023-02-15T21:29:15.554Z,74.08
2023-02-15T21:31:42.035Z,72.45
2023-02-15T21:34:08.482Z,73.55
2023-02-15T21:36:34.878Z,74.40
2023-02-15T21:39:03.257Z,75.16
2023-02-15T21:41:29.613Z,73.71
2023-02-15T21:43:57.352Z,73.28
2023-02-15T21:46:23.803Z,72.51
2023-02-15T21:48:50.190Z,73.21
2023-02-15T21:51:16.579Z,72.64
2023-02-15T21:53:45.319Z,72.29
2023-02-15T21:56:13.853Z,72.89
2023-02-15T21:58:40.289Z,72.84
2023-02-15T22:01:20.501Z,72.38
2023-02-15T22:03:47.161Z,72.27
2023-02-15T22:06:13.706Z,72.20
2023-02-15T22:08:40.331Z,73.29
2023-02-15T22:11:11.619Z,73.46
2023-02-15T22:13:38.121Z,74.19
2023-02-15T22:16:04.889Z,73.12
2023-02-15T22:18:34.372Z,74.92
2023-02-15T22:21:02.408Z,75.13
2023-02-15T22:23:29.221Z,74.15
2023-02-15T22:25:58.014Z,73.81
2023-02-15T22:28:29.256Z,73.83
2023-02-15T22:30:55.642Z,72.38
2023-02-15T22:33:25.589Z,70.79
2023-02-15T22:35:53.801Z,69.87
2023-02-15T22:38:20.260Z,71.25
2023-02-15T22:40:48.279Z,70.68
2023-02-15T22:43:34.348Z,70.51
2023-02-15T22:46:03.612Z,71.71
2023-02-15T22:48:30.127Z,73.53
2023-02-15T22:50:57.833Z,72.58
2023-02-15T22:53:24.691Z,73.68
2023-02-15T22:55:52.302Z,73.23
2023-02-15T22:58:22.312Z,74.05
2023-02-15T23:00:48.758Z,73.25
2023-02-15T23:03:17.352Z,71.80
2023-02-15T23:05:44.646Z,73.70
2023-02-15T23:08:12.648Z,72.93
2023-02-15T23:10:40.438Z,73.45
2023-02-15T23:13:16.155Z,76.14
2023-02-15T23:15:44.689Z,76.16
2023-02-15T23:18:17.131Z,74.64
2023-02-15T23:20:43.951Z,75.82
2023-02-15T23:23:13.077Z,75.03
2023-02-15T23:25:40.008Z,75.47
2023-02-15T23:28:17.917Z,75.51
2023-02-15T23:30:44.675Z,75.17
2023-02-15T23:33:11.691Z,75.21
2023-02-15T23:35:38.340Z,76.66
2023-02-15T23:38:16.169Z,75.37
2023-02-15T23:40:47.493Z,75.27
2023-02-15T23:43:21.383Z,73.51
2023-02-15T23:45:48.039Z,74.75
2023-02-15T23:48:23.817Z,71.09
2023-02-15T23:50:50.207Z,74.33
2023-02-15T23:53:16.587Z,73.33
2023-02-15T23:55:44.457Z,73.86
2023-02-15T23:58:17.054Z,74.27
